Time;durP1;ratioP1;P1;durP2;ratioP2;P2;SDS_P1;SDS_P2;PMS_P1;PMS_P2;Temp;Humidity;BMP_temperature;BMP_pressure;BME280_temperature;BME280_humidity;BME280_pressure;Samples;Min_cycle;Max_cycle;Signal;HPM_P1;HPM_P2
2022/05/26 00:01:07;;;;;;;3.87;0.73;;;;;;;;;;8305561;28;20097;-59
2022/05/26 00:05:08;;;;;;;2.17;0.60;;;;;;;;;;8308964;28;20032;-60
2022/05/26 00:09:08;;;;;;;1.85;0.52;;;;;;;;;;8307095;28;20017;-58
2022/05/26 00:13:08;;;;;;;0.82;0.50;;;;;;;;;;8308971;28;20033;-59
2022/05/26 00:17:09;;;;;;;0.70;0.60;;;;;;;;;;8308930;28;20432;-60
2022/05/26 00:21:09;;;;;;;3.03;0.80;;;;;;;;;;8306250;28;20053;-58
2022/05/26 00:25:09;;;;;;;0.85;0.70;;;;;;;;;;8307041;28;20035;-59
2022/05/26 00:29:10;;;;;;;0.93;0.73;;;;;;;;;;8307890;28;20029;-59
2022/05/26 00:33:10;;;;;;;0.60;0.57;;;;;;;;;;8305079;28;20037;-58
2022/05/26 00:37:11;;;;;;;1.85;0.60;;;;;;;;;;8307230;28;20878;-58
2022/05/26 00:41:13;;;;;;;2.83;0.63;;;;;;;;;;8312498;28;20489;-59
2022/05/26 00:45:13;;;;;;;0.82;0.60;;;;;;;;;;8310694;28;20029;-60
2022/05/26 00:49:18;;;;;;;2.40;0.70;;;;;;;;;;8313031;28;20032;-58
2022/05/26 00:53:21;;;;;;;2.72;0.70;;;;;;;;;;8312015;28;20123;-58
2022/05/26 00:57:28;;;;;;;3.60;0.70;;;;;;;;;;8312836;28;20484;-58
2022/05/26 01:01:29;;;;;;;1.15;0.70;;;;;;;;;;8311082;28;20272;-58
2022/05/26 01:05:35;;;;;;;2.67;0.70;;;;;;;;;;8310551;28;20020;-58
2022/05/26 01:09:36;;;;;;;1.70;0.70;;;;;;;;;;8313837;28;20029;-58
2022/05/26 01:13:41;;;;;;;2.55;0.70;;;;;;;;;;8312788;28;20405;-57
2022/05/26 01:17:50;;;;;;;2.90;0.63;;;;;;;;;;8309419;28;20036;-58
2022/05/26 01:22:08;;;;;;;2.95;0.73;;;;;;;;;;8309209;28;20402;-60
2022/05/26 01:26:18;;;;;;;1.17;0.80;;;;;;;;;;8309684;28;20035;-58
2022/05/26 01:30:19;;;;;;;1.30;0.70;;;;;;;;;;8309686;28;20569;-58
2022/05/26 01:34:22;;;;;;;2.63;0.80;;;;;;;;;;8309964;28;20586;-58
2022/05/26 01:38:39;;;;;;;2.08;0.77;;;;;;;;;;8310968;28;20025;-58
2022/05/26 01:42:55;;;;;;;1.23;0.52;;;;;;;;;;8311541;28;20036;-58
2022/05/26 01:47:01;;;;;;;1.55;0.60;;;;;;;;;;8310398;28;20121;-63
2022/05/26 01:51:16;;;;;;;0.63;0.60;;;;;;;;;;8311087;28;20021;-58
2022/05/26 01:55:18;;;;;;;3.38;0.70;;;;;;;;;;8310412;28;20028;-58
2022/05/26 01:59:22;;;;;;;0.85;0.70;;;;;;;;;;8308108;28;20026;-59
2022/05/26 02:03:24;;;;;;;2.83;0.93;;;;;;;;;;8309884;28;20048;-58
2022/05/26 02:07:28;;;;;;;2.63;0.70;;;;;;;;;;8309744;28;20040;-58
2022/05/26 02:11:30;;;;;;;2.25;0.60;;;;;;;;;;8308906;28;20513;-59
2022/05/26 02:15:34;;;;;;;1.60;0.55;;;;;;;;;;8308461;28;20735;-58
2022/05/26 02:19:37;;;;;;;1.17;0.60;;;;;;;;;;8309630;28;20045;-58
2022/05/26 02:23:40;;;;;;;1.67;0.60;;;;;;;;;;8307253;28;20025;-58
2022/05/26 02:27:40;;;;;;;1.40;0.68;;;;;;;;;;8308375;28;20026;-58
2022/05/26 02:31:41;;;;;;;0.90;0.60;;;;;;;;;;8306695;28;20470;-58
2022/05/26 02:35:43;;;;;;;1.85;0.80;;;;;;;;;;8309520;28;20449;-58
2022/05/26 02:39:43;;;;;;;0.50;0.50;;;;;;;;;;8308079;28;20029;-59
2022/05/26 02:43:43;;;;;;;3.47;0.70;;;;;;;;;;8307956;28;20030;-58
2022/05/26 02:47:59;;;;;;;1.55;0.82;;;;;;;;;;8306443;28;20048;-58
2022/05/26 02:52:02;;;;;;;0.88;0.57;;;;;;;;;;8310466;28;20483;-58
2022/05/26 02:56:11;;;;;;;2.15;0.60;;;;;;;;;;8307219;28;20705;-58
2022/05/26 03:00:16;;;;;;;0.93;0.60;;;;;;;;;;8309268;28;20025;-59
2022/05/26 03:04:18;;;;;;;2.92;0.77;;;;;;;;;;8308298;28;20040;-58
2022/05/26 03:08:20;;;;;;;0.98;0.70;;;;;;;;;;8308558;28;20021;-58
2022/05/26 03:12:26;;;;;;;0.70;0.60;;;;;;;;;;8307421;28;20190;-58
2022/05/26 03:16:26;;;;;;;1.60;0.68;;;;;;;;;;8306751;28;20044;-58
2022/05/26 03:20:26;;;;;;;3.13;0.80;;;;;;;;;;8309126;28;20039;-58
2022/05/26 03:24:26;;;;;;;3.40;0.70;;;;;;;;;;8304520;28;20029;-58
2022/05/26 03:28:27;;;;;;;1.60;0.60;;;;;;;;;;8305264;28;20029;-58
2022/05/26 03:32:28;;;;;;;1.20;0.60;;;;;;;;;;8303422;28;20700;-58
2022/05/26 03:40:56;;;;;;;0.93;0.50;;;;;;;;;;8305915;28;20083;-58
2022/05/26 03:44:57;;;;;;;3.75;0.70;;;;;;;;;;8313810;28;20056;-59
2022/05/26 03:48:57;;;;;;;1.42;0.60;;;;;;;;;;8304818;28;20044;-58
2022/05/26 03:52:57;;;;;;;4.20;0.73;;;;;;;;;;8307175;28;20120;-58
2022/05/26 03:56:58;;;;;;;0.80;0.70;;;;;;;;;;8305339;28;20021;-58
2022/05/26 04:01:02;;;;;;;0.88;0.60;;;;;;;;;;8303713;28;20033;-57
2022/05/26 04:05:03;;;;;;;0.75;0.60;;;;;;;;;;8305016;28;20432;-58
2022/05/26 04:09:04;;;;;;;0.65;0.50;;;;;;;;;;8306444;28;20122;-58
2022/05/26 04:13:04;;;;;;;1.10;0.50;;;;;;;;;;8309658;28;20164;-57
2022/05/26 04:17:04;;;;;;;0.63;0.50;;;;;;;;;;8312049;28;20590;-59
2022/05/26 04:21:09;;;;;;;2.73;0.70;;;;;;;;;;8310923;28;20029;-58
2022/05/26 04:25:09;;;;;;;0.68;0.50;;;;;;;;;;8315327;28;20381;-58
2022/05/26 04:29:15;;;;;;;0.87;0.50;;;;;;;;;;8314753;28;20071;-58
2022/05/26 04:33:15;;;;;;;1.10;0.50;;;;;;;;;;8311579;28;20480;-58
2022/05/26 04:37:16;;;;;;;0.95;0.65;;;;;;;;;;8312895;28;20021;-57
2022/05/26 04:41:17;;;;;;;0.88;0.60;;;;;;;;;;8313463;28;20132;-58
2022/05/26 04:45:17;;;;;;;0.95;0.60;;;;;;;;;;8312204;28;20037;-59
2022/05/26 04:49:17;;;;;;;0.93;0.63;;;;;;;;;;8314105;28;20130;-58
2022/05/26 04:53:18;;;;;;;1.08;0.70;;;;;;;;;;8311085;28;20052;-59
2022/05/26 04:57:19;;;;;;;0.60;0.60;;;;;;;;;;8313923;28;20540;-58
2022/05/26 05:01:20;;;;;;;4.10;0.70;;;;;;;;;;8312215;28;20037;-58
2022/05/26 05:05:20;;;;;;;1.25;0.70;;;;;;;;;;8311705;28;20028;-58
2022/05/26 05:09:21;;;;;;;2.58;0.60;;;;;;;;;;8310257;28;20028;-58
2022/05/26 05:13:21;;;;;;;1.85;0.80;;;;;;;;;;8309186;28;20061;-58
2022/05/26 05:17:23;;;;;;;1.85;0.82;;;;;;;;;;8311212;28;20122;-58
2022/05/26 05:21:26;;;;;;;1.70;0.70;;;;;;;;;;8313396;28;20032;-59
2022/05/26 05:25:28;;;;;;;1.37;0.70;;;;;;;;;;8311505;28;20029;-59
2022/05/26 05:29:31;;;;;;;2.17;0.90;;;;;;;;;;8312238;28;20077;-58
2022/05/26 05:33:31;;;;;;;2.03;0.80;;;;;;;;;;8313356;28;20037;-59
2022/05/26 05:37:33;;;;;;;0.77;0.68;;;;;;;;;;8311393;28;20130;-58
2022/05/26 05:41:34;;;;;;;1.60;0.70;;;;;;;;;;8313234;28;20108;-59
2022/05/26 05:45:35;;;;;;;4.53;0.85;;;;;;;;;;8312305;28;20052;-58
2022/05/26 05:49:35;;;;;;;0.88;0.77;;;;;;;;;;8311424;28;20029;-58
2022/05/26 05:53:35;;;;;;;1.08;0.80;;;;;;;;;;8310384;28;20025;-58
2022/05/26 05:57:35;;;;;;;2.08;0.80;;;;;;;;;;8310171;28;20021;-59
2022/05/26 06:01:36;;;;;;;1.00;0.57;;;;;;;;;;8310579;28;20053;-58
2022/05/26 06:05:36;;;;;;;1.30;0.63;;;;;;;;;;8311904;28;20033;-59
2022/05/26 06:09:36;;;;;;;3.17;0.93;;;;;;;;;;8311942;28;20092;-59
2022/05/26 06:13:36;;;;;;;1.07;0.63;;;;;;;;;;8310659;28;20287;-58
2022/05/26 06:17:37;;;;;;;3.83;0.98;;;;;;;;;;8310434;28;20342;-58
2022/05/26 06:21:38;;;;;;;2.13;0.90;;;;;;;;;;8310007;28;20959;-59
2022/05/26 06:25:38;;;;;;;1.83;0.80;;;;;;;;;;8310286;28;20021;-59
2022/05/26 06:29:51;;;;;;;2.88;0.80;;;;;;;;;;8309555;28;20046;-59
2022/05/26 06:38:10;;;;;;;3.60;0.98;;;;;;;;;;8308203;28;20159;-59
2022/05/26 06:42:11;;;;;;;1.27;0.70;;;;;;;;;;8303357;28;20446;-59
2022/05/26 06:46:11;;;;;;;1.35;0.70;;;;;;;;;;8310117;28;20051;-59
2022/05/26 06:50:11;;;;;;;2.40;0.68;;;;;;;;;;8309463;28;20136;-59
2022/05/26 06:54:20;;;;;;;2.97;0.60;;;;;;;;;;8318419;28;20033;-60
2022/05/26 06:58:21;;;;;;;2.97;0.80;;;;;;;;;;8306762;28;20017;-58
2022/05/26 07:02:21;;;;;;;0.83;0.60;;;;;;;;;;8310038;28;20963;-60
2022/05/26 07:06:26;;;;;;;1.50;0.70;;;;;;;;;;8310029;28;20029;-60
2022/05/26 07:10:26;;;;;;;1.05;0.60;;;;;;;;;;8311101;28;20052;-59
2022/05/26 07:14:26;;;;;;;1.73;0.60;;;;;;;;;;8309883;28;20094;-59
2022/05/26 07:18:27;;;;;;;2.92;0.70;;;;;;;;;;8307825;28;20292;-58
2022/05/26 07:22:29;;;;;;;0.82;0.60;;;;;;;;;;8309920;28;20059;-58
2022/05/26 07:26:32;;;;;;;1.65;0.68;;;;;;;;;;8310745;28;20025;-59
2022/05/26 07:30:32;;;;;;;0.50;0.50;;;;;;;;;;8308166;28;20036;-60
2022/05/26 07:34:32;;;;;;;1.50;0.67;;;;;;;;;;8309046;28;20108;-59
2022/05/26 07:42:51;;;;;;;1.92;0.70;;;;;;;;;;8308065;28;20059;-59
2022/05/26 07:46:52;;;;;;;2.90;0.77;;;;;;;;;;8308171;28;20061;-59
2022/05/26 07:50:52;;;;;;;2.53;0.73;;;;;;;;;;8308488;28;20024;-58
2022/05/26 07:54:53;;;;;;;0.82;0.60;;;;;;;;;;8306307;28;20106;-59
2022/05/26 07:58:53;;;;;;;2.70;0.77;;;;;;;;;;8308751;28;20479;-59
2022/05/26 08:02:53;;;;;;;2.60;0.95;;;;;;;;;;8305416;28;20216;-59
2022/05/26 08:06:54;;;;;;;4.18;0.70;;;;;;;;;;8308631;28;20014;-59
2022/05/26 08:10:54;;;;;;;1.02;0.65;;;;;;;;;;8307517;28;20138;-57
2022/05/26 08:14:55;;;;;;;1.95;0.88;;;;;;;;;;8308283;28;20569;-59
2022/05/26 08:18:55;;;;;;;2.65;0.70;;;;;;;;;;8308396;28;20048;-59
2022/05/26 08:22:56;;;;;;;1.85;0.80;;;;;;;;;;8306054;28;21099;-59
2022/05/26 08:26:56;;;;;;;2.38;0.73;;;;;;;;;;8310775;28;20902;-58
2022/05/26 08:30:57;;;;;;;1.23;0.60;;;;;;;;;;8308121;28;21279;-59
2022/05/26 08:34:57;;;;;;;2.75;0.70;;;;;;;;;;8309960;28;20021;-59
2022/05/26 08:38:57;;;;;;;1.42;0.50;;;;;;;;;;8306879;28;20052;-59
2022/05/26 08:42:58;;;;;;;2.15;0.77;;;;;;;;;;8308974;28;20074;-59
2022/05/26 08:47:03;;;;;;;1.33;0.70;;;;;;;;;;8308315;28;20482;-59
2022/05/26 08:51:04;;;;;;;0.95;0.55;;;;;;;;;;8306485;28;20052;-59
2022/05/26 08:55:07;;;;;;;2.28;0.70;;;;;;;;;;8306524;28;20025;-59
2022/05/26 08:59:10;;;;;;;3.25;0.80;;;;;;;;;;8308152;28;20025;-59
2022/05/26 09:03:21;;;;;;;3.15;0.60;;;;;;;;;;8313236;28;20656;-59
2022/05/26 09:15:44;;;;;;;0.88;0.60;;;;;;;;;;8311442;28;20478;-60
2022/05/26 09:19:44;;;;;;;1.23;0.57;;;;;;;;;;8312585;28;20465;-59
2022/05/26 09:23:47;;;;;;;1.85;0.75;;;;;;;;;;8311995;28;20021;-59
2022/05/26 09:27:51;;;;;;;2.05;0.60;;;;;;;;;;8311868;28;20049;-59
2022/05/26 09:31:52;;;;;;;0.88;0.50;;;;;;;;;;8311044;28;20106;-59
2022/05/26 09:35:52;;;;;;;0.98;0.50;;;;;;;;;;8313035;28;20025;-59
2022/05/26 09:40:09;;;;;;;2.38;0.60;;;;;;;;;;8320258;28;20117;-59
2022/05/26 09:44:28;;;;;;;0.80;0.55;;;;;;;;;;8313619;28;20083;-60
2022/05/26 09:48:30;;;;;;;0.52;0.52;;;;;;;;;;8310396;28;20718;-59
2022/05/26 09:52:39;;;;;;;0.60;0.57;;;;;;;;;;8312009;28;20087;-58
2022/05/26 09:56:40;;;;;;;2.30;0.70;;;;;;;;;;8313597;28;20718;-59
2022/05/26 10:00:41;;;;;;;1.73;0.57;;;;;;;;;;8310714;28;20088;-59
2022/05/26 10:04:47;;;;;;;0.50;0.50;;;;;;;;;;8311797;28;20024;-59
2022/05/26 10:09:16;;;;;;;0.55;0.55;;;;;;;;;;8313150;28;20251;-60
2022/05/26 10:13:40;;;;;;;0.70;0.50;;;;;;;;;;8306110;28;20412;-59
2022/05/26 10:17:58;;;;;;;3.55;0.80;;;;;;;;;;8310647;28;20059;-59
2022/05/26 10:22:11;;;;;;;1.52;0.90;;;;;;;;;;8309602;28;20084;-59
2022/05/26 10:26:14;;;;;;;2.05;0.60;;;;;;;;;;8308310;28;20028;-60
2022/05/26 10:30:20;;;;;;;2.85;1.40;;;;;;;;;;8309095;28;20021;-59
2022/05/26 10:34:35;;;;;;;1.48;0.80;;;;;;;;;;8310982;28;20075;-60
2022/05/26 10:38:35;;;;;;;0.60;0.60;;;;;;;;;;8311028;28;20026;-59
2022/05/26 10:42:38;;;;;;;1.38;0.63;;;;;;;;;;8310014;28;20025;-60
2022/05/26 10:46:41;;;;;;;2.47;0.82;;;;;;;;;;8310584;28;20124;-59
2022/05/26 10:50:41;;;;;;;0.88;0.63;;;;;;;;;;8312011;28;20108;-59
2022/05/26 10:54:41;;;;;;;1.77;0.82;;;;;;;;;;8310741;28;20057;-60
2022/05/26 10:58:44;;;;;;;1.17;0.80;;;;;;;;;;8310372;28;20059;-59
2022/05/26 11:03:02;;;;;;;3.13;0.90;;;;;;;;;;8308769;28;20041;-60
2022/05/26 11:07:05;;;;;;;0.65;0.57;;;;;;;;;;8308356;28;20102;-60
2022/05/26 11:11:23;;;;;;;2.10;0.70;;;;;;;;;;8307970;28;20786;-60
2022/05/26 11:19:50;;;;;;;1.70;0.82;;;;;;;;;;8311356;28;20094;-59
2022/05/26 11:23:50;;;;;;;2.30;1.05;;;;;;;;;;8307783;28;20029;-59
2022/05/26 11:27:50;;;;;;;1.60;1.10;;;;;;;;;;8311279;28;20025;-59
2022/05/26 11:36:36;;;;;;;0.95;0.85;;;;;;;;;;8309972;28;20031;-59
2022/05/26 11:40:46;;;;;;;2.47;0.80;;;;;;;;;;8308305;28;20041;-61
2022/05/26 11:45:05;;;;;;;2.70;0.80;;;;;;;;;;8307568;28;20075;-60
2022/05/26 11:49:05;;;;;;;1.85;0.85;;;;;;;;;;8309803;28;20045;-59
2022/05/26 11:53:10;;;;;;;3.80;0.75;;;;;;;;;;8307595;28;20091;-59
2022/05/26 11:57:29;;;;;;;1.50;0.80;;;;;;;;;;8310378;28;20123;-59
2022/05/26 12:01:29;;;;;;;2.50;0.77;;;;;;;;;;8307007;28;20034;-60
2022/05/26 12:05:29;;;;;;;1.05;0.60;;;;;;;;;;8308190;28;20147;-59
2022/05/26 12:09:40;;;;;;;1.35;0.65;;;;;;;;;;8307442;28;20024;-59
2022/05/26 12:13:41;;;;;;;1.08;0.77;;;;;;;;;;8307171;28;20122;-59
2022/05/26 12:17:51;;;;;;;1.25;0.80;;;;;;;;;;8307413;28;20117;-59
2022/05/26 12:22:11;;;;;;;1.08;0.80;;;;;;;;;;8308804;28;20545;-58
2022/05/26 12:26:24;;;;;;;1.27;0.80;;;;;;;;;;8308477;28;20100;-57
2022/05/26 12:30:29;;;;;;;1.15;0.80;;;;;;;;;;8307616;28;20045;-58
2022/05/26 12:34:34;;;;;;;1.52;0.80;;;;;;;;;;8312183;28;20493;-57
2022/05/26 12:38:44;;;;;;;2.25;0.75;;;;;;;;;;8313036;28;20459;-58
2022/05/26 12:42:57;;;;;;;2.30;0.98;;;;;;;;;;8312378;28;20047;-58
2022/05/26 12:46:57;;;;;;;5.10;3.00;;;;;;;;;;8312665;28;20506;-58
2022/05/26 12:51:02;;;;;;;1.52;1.00;;;;;;;;;;8312337;28;20029;-59
2022/05/26 12:55:21;;;;;;;1.52;0.88;;;;;;;;;;8311845;28;20345;-58
2022/05/26 12:59:22;;;;;;;2.78;0.90;;;;;;;;;;8311238;28;20100;-59
2022/05/26 13:03:36;;;;;;;2.33;1.10;;;;;;;;;;8311542;28;20095;-59
2022/05/26 13:07:37;;;;;;;2.17;1.30;;;;;;;;;;8313032;28;20056;-59
2022/05/26 13:11:45;;;;;;;2.28;0.90;;;;;;;;;;8312015;28;20486;-58
2022/05/26 13:15:46;;;;;;;7.10;0.90;;;;;;;;;;8312122;28;20041;-59
2022/05/26 13:19:48;;;;;;;2.35;0.90;;;;;;;;;;8312246;28;20850;-58
2022/05/26 13:23:49;;;;;;;1.75;0.93;;;;;;;;;;8314333;28;20104;-59
2022/05/26 13:28:08;;;;;;;1.35;0.73;;;;;;;;;;8313143;28;20033;-58
2022/05/26 13:36:31;;;;;;;1.88;1.15;;;;;;;;;;8313914;28;20426;-58
2022/05/26 13:40:32;;;;;;;1.80;1.08;;;;;;;;;;8311907;28;20741;-58
2022/05/26 13:44:38;;;;;;;2.92;2.10;;;;;;;;;;8311474;28;20034;-59
2022/05/26 13:48:39;;;;;;;1.65;1.15;;;;;;;;;;8311650;28;20045;-59
2022/05/26 13:52:41;;;;;;;1.80;1.10;;;;;;;;;;8311818;28;20067;-59
2022/05/26 13:56:43;;;;;;;1.83;0.90;;;;;;;;;;8311438;28;20032;-59
2022/05/26 14:00:43;;;;;;;;;;;;;;;;;;8310363;28;20554;-58
2022/05/26 14:04:56;;;;;;;2.85;1.20;;;;;;;;;;8312430;28;19982;-58
2022/05/26 14:08:57;;;;;;;3.20;0.97;;;;;;;;;;8313219;28;20064;-58
2022/05/26 14:12:59;;;;;;;2.05;0.95;;;;;;;;;;8311080;28;20808;-59
2022/05/26 14:17:00;;;;;;;1.83;1.00;;;;;;;;;;8309486;28;20037;-58
2022/05/26 14:21:21;;;;;;;2.30;0.95;;;;;;;;;;8311208;28;20114;-58
2022/05/26 14:25:22;;;;;;;3.25;1.13;;;;;;;;;;8309771;28;20025;-59
2022/05/26 14:29:23;;;;;;;2.70;1.10;;;;;;;;;;8310209;28;20461;-58
2022/05/26 14:33:24;;;;;;;2.08;1.10;;;;;;;;;;8310145;28;20033;-58
2022/05/26 14:37:25;;;;;;;1.75;1.02;;;;;;;;;;8309162;28;20049;-59
2022/05/26 14:41:26;;;;;;;2.25;1.00;;;;;;;;;;8309813;28;20028;-60
2022/05/26 14:45:27;;;;;;;3.33;1.20;;;;;;;;;;8309325;28;20156;-59
2022/05/26 14:49:27;;;;;;;2.20;0.90;;;;;;;;;;8310129;28;20034;-59
2022/05/26 14:57:46;;;;;;;2.92;1.00;;;;;;;;;;8309712;28;20101;-59
2022/05/26 15:01:47;;;;;;;2.58;1.23;;;;;;;;;;8308037;28;20654;-59
2022/05/26 15:05:47;;;;;;;2.50;1.27;;;;;;;;;;8310632;28;20029;-59
2022/05/26 15:09:48;;;;;;;3.70;1.15;;;;;;;;;;8307358;28;20179;-59
2022/05/26 15:13:48;;;;;;;3.70;1.13;;;;;;;;;;8309761;28;20069;-59
2022/05/26 15:17:48;;;;;;;2.80;1.23;;;;;;;;;;8311795;28;20558;-59
2022/05/26 15:21:49;;;;;;;3.40;1.13;;;;;;;;;;8308218;28;20137;-59
2022/05/26 15:26:08;;;;;;;3.53;1.10;;;;;;;;;;8310927;28;20649;-59
2022/05/26 15:30:11;;;;;;;1.77;1.10;;;;;;;;;;8306593;28;20445;-59
2022/05/26 15:34:11;;;;;;;;;;;;;;;;;;8308371;28;20116;-59
2022/05/26 15:38:11;;;;;;;2.58;1.10;;;;;;;;;;8307545;28;19920;-59
2022/05/26 15:42:11;;;;;;;3.85;1.30;;;;;;;;;;8307831;28;20028;-59
2022/05/26 15:46:14;;;;;;;4.20;1.30;;;;;;;;;;8307788;28;20035;-59
2022/05/26 15:50:14;;;;;;;;;;;;;;;;;;8311418;28;20017;-59
2022/05/26 15:54:23;;;;;;;3.58;1.20;;;;;;;;;;8308125;28;19967;-58
2022/05/26 15:58:25;;;;;;;3.30;1.40;;;;;;;;;;8309971;28;20887;-59
2022/05/26 16:02:26;;;;;;;2.63;1.20;;;;;;;;;;8308757;28;20029;-59
2022/05/26 16:06:26;;;;;;;4.20;1.60;;;;;;;;;;8307412;28;20542;-59
2022/05/26 16:10:28;;;;;;;3.27;1.40;;;;;;;;;;8312845;28;20107;-59
2022/05/26 16:14:30;;;;;;;4.43;1.73;;;;;;;;;;8314840;28;20040;-59
2022/05/26 16:23:13;;;;;;;3.65;1.52;;;;;;;;;;8314796;28;20083;-59
2022/05/26 16:27:13;;;;;;;3.85;1.40;;;;;;;;;;8314349;28;20025;-59
2022/05/26 16:31:14;;;;;;;2.90;1.40;;;;;;;;;;8313861;28;20033;-59
2022/05/26 16:39:39;;;;;;;3.40;1.33;;;;;;;;;;8308708;28;20041;-59
2022/05/26 16:43:40;;;;;;;3.87;1.30;;;;;;;;;;8312525;28;20091;-59
2022/05/26 16:47:40;;;;;;;5.40;1.50;;;;;;;;;;8313532;28;20055;-59
2022/05/26 16:51:46;;;;;;;3.38;1.27;;;;;;;;;;8315089;28;20401;-59
2022/05/26 16:55:47;;;;;;;3.35;1.27;;;;;;;;;;8311271;28;20425;-59
2022/05/26 16:59:47;;;;;;;4.70;1.33;;;;;;;;;;8313334;28;20041;-59
2022/05/26 17:03:48;;;;;;;4.97;2.20;;;;;;;;;;8312429;28;20156;-58
2022/05/26 17:07:48;;;;;;;6.20;2.80;;;;;;;;;;8311847;28;20466;-59
2022/05/26 17:11:48;;;;;;;6.43;1.65;;;;;;;;;;8312387;28;20025;-59
2022/05/26 17:24:27;;;;;;;3.03;1.60;;;;;;;;;;8312363;28;20029;-58
2022/05/26 17:28:28;;;;;;;4.57;1.70;;;;;;;;;;8313971;28;20020;-59
2022/05/26 17:32:28;;;;;;;3.20;1.42;;;;;;;;;;8312272;28;20040;-59
2022/05/26 17:36:30;;;;;;;4.93;1.95;;;;;;;;;;8313651;28;20052;-59
2022/05/26 17:40:30;;;;;;;4.07;1.65;;;;;;;;;;8313403;28;20021;-59
2022/05/26 17:44:32;;;;;;;2.43;1.30;;;;;;;;;;8312652;28;20033;-59
2022/05/26 17:48:32;;;;;;;11.43;2.72;;;;;;;;;;8314848;28;20029;-59
2022/05/26 17:52:33;;;;;;;7.30;2.35;;;;;;;;;;8312235;28;20040;-59
2022/05/26 17:56:33;;;;;;;2.78;1.60;;;;;;;;;;8311468;28;20817;-58
2022/05/26 18:04:52;;;;;;;3.90;1.55;;;;;;;;;;8311923;28;20075;-59
2022/05/26 18:08:53;;;;;;;6.70;1.73;;;;;;;;;;8310009;28;20020;-59
2022/05/26 18:12:54;;;;;;;3.47;1.65;;;;;;;;;;8312344;28;20025;-59
2022/05/26 18:16:58;;;;;;;4.25;1.52;;;;;;;;;;8312545;28;20399;-58
2022/05/26 18:20:59;;;;;;;4.15;2.10;;;;;;;;;;8310159;28;20033;-58
2022/05/26 18:24:59;;;;;;;4.82;1.85;;;;;;;;;;8310883;28;20043;-59
2022/05/26 18:28:59;;;;;;;3.88;1.70;;;;;;;;;;8311307;28;20017;-58
2022/05/26 18:33:02;;;;;;;5.55;1.90;;;;;;;;;;8310678;28;20051;-59
2022/05/26 18:37:09;;;;;;;2.47;1.37;;;;;;;;;;8309870;28;20029;-58
2022/05/26 18:41:09;;;;;;;2.80;1.50;;;;;;;;;;8310474;28;20136;-58
2022/05/26 18:45:10;;;;;;;3.37;2.07;;;;;;;;;;8309494;28;20039;-59
2022/05/26 18:49:11;;;;;;;4.82;1.60;;;;;;;;;;8308477;28;20057;-59
2022/05/26 18:53:18;;;;;;;2.63;1.67;;;;;;;;;;8310836;28;20438;-58
2022/05/26 18:57:18;;;;;;;4.43;2.08;;;;;;;;;;8308161;28;20198;-58
2022/05/26 19:01:19;;;;;;;3.97;1.70;;;;;;;;;;8307769;28;20113;-58
2022/05/26 19:05:20;;;;;;;3.50;1.50;;;;;;;;;;8309416;28;20039;-58
2022/05/26 19:09:20;;;;;;;3.80;1.52;;;;;;;;;;8308765;28;20044;-59
2022/05/26 19:13:23;;;;;;;3.95;1.40;;;;;;;;;;8308484;28;20066;-58
2022/05/26 19:17:24;;;;;;;;;;;;;;;;;;8308519;28;20037;-58
2022/05/26 19:21:25;;;;;;;5.88;1.40;;;;;;;;;;8308025;28;19917;-58
2022/05/26 19:25:26;;;;;;;3.35;1.20;;;;;;;;;;8311818;28;20028;-58
2022/05/26 19:29:28;;;;;;;3.38;1.48;;;;;;;;;;8308655;28;20040;-59
2022/05/26 19:33:28;;;;;;;4.30;1.17;;;;;;;;;;8307250;28;20047;-58
2022/05/26 19:37:29;;;;;;;3.10;1.40;;;;;;;;;;8306934;28;20075;-58
2022/05/26 19:41:29;;;;;;;5.28;1.50;;;;;;;;;;8307488;28;20413;-59
2022/05/26 19:45:30;;;;;;;5.20;1.30;;;;;;;;;;8306142;28;20029;-58
2022/05/26 19:49:30;;;;;;;5.53;1.40;;;;;;;;;;8309484;28;20649;-58
2022/05/26 19:53:31;;;;;;;6.07;1.50;;;;;;;;;;8307377;28;20098;-58
2022/05/26 19:57:31;;;;;;;5.18;1.40;;;;;;;;;;8305699;28;20025;-58
2022/05/26 20:01:32;;;;;;;4.90;1.50;;;;;;;;;;8308353;28;20036;-58
2022/05/26 20:05:33;;;;;;;3.03;1.73;;;;;;;;;;8305666;28;20028;-59
2022/05/26 20:09:37;;;;;;;4.80;1.30;;;;;;;;;;8308451;28;20025;-58
2022/05/26 20:13:37;;;;;;;2.65;1.20;;;;;;;;;;8306672;28;20029;-59
2022/05/26 20:17:39;;;;;;;2.60;1.40;;;;;;;;;;8304977;28;20103;-59
2022/05/26 20:21:39;;;;;;;3.38;1.38;;;;;;;;;;8308356;28;20369;-59
2022/05/26 20:25:41;;;;;;;3.45;1.20;;;;;;;;;;8307255;28;20028;-63
2022/05/26 20:29:42;;;;;;;5.68;1.42;;;;;;;;;;8305919;28;20026;-58
2022/05/26 20:33:42;;;;;;;3.75;1.40;;;;;;;;;;8307526;28;20165;-58
2022/05/26 20:37:42;;;;;;;3.92;1.30;;;;;;;;;;8309326;28;20030;-59
2022/05/26 20:41:43;;;;;;;4.18;1.40;;;;;;;;;;8306563;28;20355;-58
2022/05/26 20:45:47;;;;;;;3.25;1.23;;;;;;;;;;8308565;28;20505;-59
2022/05/26 20:49:50;;;;;;;3.83;1.38;;;;;;;;;;8306839;28;20657;-59
2022/05/26 20:53:50;;;;;;;4.20;1.40;;;;;;;;;;8302306;28;20037;-58
2022/05/26 20:57:50;;;;;;;3.42;1.40;;;;;;;;;;8311566;28;20021;-59
2022/05/26 21:01:50;;;;;;;4.50;1.30;;;;;;;;;;8309945;28;20043;-59
2022/05/26 21:05:51;;;;;;;5.35;1.35;;;;;;;;;;8313728;28;20036;-59
2022/05/26 21:09:52;;;;;;;3.17;1.13;;;;;;;;;;8311084;28;20049;-59
2022/05/26 21:13:52;;;;;;;2.80;1.40;;;;;;;;;;8304350;28;21074;-58
2022/05/26 21:17:52;;;;;;;3.08;1.23;;;;;;;;;;8309530;28;20034;-59
2022/05/26 21:21:52;;;;;;;3.80;1.45;;;;;;;;;;8311076;28;20087;-58
2022/05/26 21:25:53;;;;;;;3.85;1.40;;;;;;;;;;8312772;28;20033;-58
2022/05/26 21:29:53;;;;;;;5.17;1.47;;;;;;;;;;8311660;28;20620;-58
2022/05/26 21:33:53;;;;;;;3.05;1.30;;;;;;;;;;8310638;28;20068;-58
2022/05/26 21:37:53;;;;;;;3.50;1.40;;;;;;;;;;8311265;28;20550;-58
2022/05/26 21:41:54;;;;;;;6.82;1.58;;;;;;;;;;8311719;28;20025;-58
2022/05/26 21:45:54;;;;;;;3.37;1.37;;;;;;;;;;8310483;28;20449;-59
2022/05/26 21:49:54;;;;;;;3.65;1.27;;;;;;;;;;8309829;28;20264;-58
2022/05/26 21:53:54;;;;;;;4.03;1.42;;;;;;;;;;8312363;28;20028;-58
2022/05/26 21:57:55;;;;;;;4.05;1.10;;;;;;;;;;8310529;28;20829;-58
2022/05/26 22:01:55;;;;;;;3.80;1.30;;;;;;;;;;8311586;28;20041;-59
2022/05/26 22:14:33;;;;;;;4.13;1.60;;;;;;;;;;8310215;28;20692;-60
2022/05/26 22:18:34;;;;;;;3.60;1.40;;;;;;;;;;8309291;28;20030;-58
2022/05/26 22:22:34;;;;;;;4.50;1.33;;;;;;;;;;8310320;28;20044;-60
2022/05/26 22:26:34;;;;;;;5.75;1.67;;;;;;;;;;8310631;28;20076;-58
2022/05/26 22:30:36;;;;;;;2.70;1.27;;;;;;;;;;8309751;28;20033;-60
2022/05/26 22:39:04;;;;;;;1.55;1.10;;;;;;;;;;8309275;28;20063;-58
2022/05/26 22:43:04;;;;;;;2.72;1.30;;;;;;;;;;8309747;28;20104;-59
2022/05/26 22:47:05;;;;;;;4.03;1.63;;;;;;;;;;8310978;28;20060;-59
2022/05/26 22:51:06;;;;;;;2.40;1.50;;;;;;;;;;8307912;28;20025;-58
2022/05/26 22:55:06;;;;;;;4.57;1.63;;;;;;;;;;8308818;28;20548;-58
2022/05/26 22:59:07;;;;;;;4.40;1.65;;;;;;;;;;8307141;28;20021;-58
2022/05/26 23:03:08;;;;;;;5.43;1.45;;;;;;;;;;8307535;28;20865;-60
2022/05/26 23:07:08;;;;;;;5.55;1.45;;;;;;;;;;8307272;28;20681;-59
2022/05/26 23:11:09;;;;;;;4.90;1.45;;;;;;;;;;8309762;28;20025;-59
2022/05/26 23:15:11;;;;;;;3.33;1.45;;;;;;;;;;8305368;28;20459;-59
2022/05/26 23:19:12;;;;;;;5.18;1.40;;;;;;;;;;8307099;28;20951;-59
2022/05/26 23:23:12;;;;;;;3.53;1.40;;;;;;;;;;8307158;28;20029;-59
2022/05/26 23:27:13;;;;;;;3.83;1.33;;;;;;;;;;8307814;28;20029;-59
2022/05/26 23:31:13;;;;;;;2.92;1.40;;;;;;;;;;8306712;28;20037;-58
2022/05/26 23:35:13;;;;;;;3.70;1.50;;;;;;;;;;8308100;28;20130;-58
2022/05/26 23:39:13;;;;;;;3.73;1.40;;;;;;;;;;8307545;28;20021;-59
2022/05/26 23:43:21;;;;;;;7.18;1.63;;;;;;;;;;8307617;28;20136;-59
2022/05/26 23:47:21;;;;;;;5.70;1.50;;;;;;;;;;8308529;28;20041;-59
2022/05/26 23:51:21;;;;;;;2.70;1.50;;;;;;;;;;8306136;28;20032;-60
2022/05/26 23:57:47;;;;;;;4.07;1.50;;;;;;;;;;8307831;28;20017;-59
2022/05/26 23:59:42;;;;;;;2.92;1.20;;;;;;;;;;8307094;28;20032;-59
